createdAt,value
2018-09-04T13:49:25.979Z,9.75
2018-09-04T13:51:55.193Z,9.88
2018-09-04T13:54:23.834Z,9.65
2018-09-04T13:56:52.453Z,10.63
2018-09-04T13:59:20.932Z,9.95
2018-09-04T14:01:50.153Z,11.90
2018-09-04T14:04:19.204Z,9.70
2018-09-04T14:06:47.557Z,11.90
2018-09-04T14:09:16.115Z,10.63
2018-09-04T14:11:44.527Z,8.93
2018-09-04T14:14:13.476Z,10.20
2018-09-04T14:16:43.542Z,11.95
2018-09-04T14:19:11.016Z,9.45
2018-09-04T14:21:39.432Z,9.35
2018-09-04T14:24:08.653Z,10.30
2018-09-04T14:26:37.317Z,9.75
2018-09-04T14:29:07.167Z,10.85
2018-09-04T14:31:34.275Z,8.93
2018-09-04T14:34:02.911Z,9.00
2018-09-04T14:36:31.440Z,8.50
2018-09-04T14:38:59.781Z,10.82
2018-09-04T14:41:28.957Z,13.32
2018-09-04T14:43:57.362Z,11.75
2018-09-04T14:46:25.796Z,10.70
2018-09-04T14:48:55.225Z,9.68
2018-09-04T14:51:24.360Z,9.73
2018-09-04T14:53:53.400Z,9.48
2018-09-04T14:56:21.980Z,10.30
2018-09-04T14:58:50.949Z,9.70
2018-09-04T15:01:19.457Z,9.55
2018-09-04T15:03:47.945Z,8.65
2018-09-04T15:06:16.791Z,9.43
2018-09-04T15:08:45.389Z,8.85
2018-09-04T15:11:14.048Z,8.58
2018-09-04T15:13:42.557Z,8.70
2018-09-04T15:16:11.084Z,9.18
2018-09-04T15:18:39.737Z,8.93
2018-09-04T15:21:08.563Z,8.30
2018-09-04T15:23:36.957Z,8.60
2018-09-04T15:26:05.733Z,8.20
2018-09-04T15:28:34.545Z,8.10
2018-09-04T15:31:02.963Z,8.63
2018-09-04T15:33:32.238Z,8.83
2018-09-04T15:36:01.708Z,8.55
2018-09-04T15:38:30.218Z,8.73
2018-09-04T15:40:59.365Z,9.05
2018-09-04T15:43:27.823Z,8.88
2018-09-04T15:45:56.421Z,12.07
2018-09-04T15:48:24.852Z,8.00
2018-09-04T15:50:53.328Z,9.40
2018-09-04T15:53:21.785Z,7.75
2018-09-04T15:55:50.420Z,8.05
2018-09-04T15:58:18.809Z,9.13
2018-09-04T16:00:47.328Z,7.47
2018-09-04T16:03:15.733Z,8.00
2018-09-04T16:05:44.199Z,7.72
2018-09-04T16:08:12.564Z,8.10
2018-09-04T16:10:41.040Z,8.68
2018-09-04T16:13:09.632Z,7.45
2018-09-04T16:15:38.303Z,7.80
2018-09-04T16:18:06.882Z,7.50
2018-09-04T16:20:35.296Z,7.85
2018-09-04T16:23:04.070Z,9.78
2018-09-04T16:25:32.780Z,8.43
2018-09-04T16:28:01.159Z,8.15
2018-09-04T16:30:29.573Z,8.65
2018-09-04T16:32:58.067Z,11.50
2018-09-04T16:35:26.609Z,8.63
2018-09-04T16:37:55.644Z,9.35
2018-09-04T16:40:24.176Z,8.33
2018-09-04T16:42:52.793Z,7.78
2018-09-04T16:45:21.560Z,8.13
2018-09-04T16:47:50.024Z,7.85
2018-09-04T16:50:18.788Z,8.95
2018-09-04T16:52:47.282Z,8.50
2018-09-04T16:55:15.873Z,7.40
2018-09-04T16:57:44.546Z,7.47
2018-09-04T17:00:13.406Z,8.68
2018-09-04T17:02:42.570Z,8.03
2018-09-04T17:05:11.255Z,10.25
2018-09-04T17:07:40.141Z,8.53
2018-09-04T17:10:08.709Z,8.58
2018-09-04T17:12:37.419Z,8.03
2018-09-04T17:15:06.423Z,7.83
2018-09-04T17:17:35.182Z,8.85
2018-09-04T17:20:04.234Z,8.38
2018-09-04T17:22:33.223Z,7.05
2018-09-04T17:25:01.849Z,7.87
2018-09-04T17:27:37.776Z,8.23
2018-09-04T17:30:06.925Z,7.97
2018-09-04T17:32:35.669Z,8.30
2018-09-04T17:35:04.289Z,7.90
2018-09-04T17:37:32.686Z,7.90
2018-09-04T17:40:01.115Z,11.57
2018-09-04T17:42:29.762Z,9.20
2018-09-04T17:44:58.292Z,8.40
2018-09-04T17:47:27.548Z,8.33
2018-09-04T17:49:56.161Z,7.53
2018-09-04T17:52:24.769Z,8.78
2018-09-04T17:54:53.394Z,7.87
2018-09-04T17:57:21.899Z,8.10
2018-09-04T17:59:50.303Z,7.80
2018-09-04T18:02:18.701Z,8.35
2018-09-04T18:04:47.112Z,8.63
2018-09-04T18:07:16.216Z,8.28
2018-09-04T18:09:44.624Z,8.58
2018-09-04T18:12:13.066Z,8.60
2018-09-04T18:14:42.229Z,8.30
2018-09-04T18:17:10.753Z,8.48
2018-09-04T18:19:39.181Z,9.60
2018-09-04T18:22:07.625Z,9.75
2018-09-04T18:24:36.276Z,7.87
2018-09-04T18:27:04.788Z,8.40
2018-09-04T18:29:33.316Z,7.97
2018-09-04T18:32:02.144Z,7.40
2018-09-04T18:34:30.611Z,9.10
2018-09-04T18:36:59.436Z,7.53
2018-09-04T18:39:27.892Z,7.58
2018-09-04T18:41:56.520Z,7.65
2018-09-04T18:44:25.269Z,7.78
2018-09-04T18:46:53.901Z,7.97
2018-09-04T18:49:22.591Z,8.45
2018-09-04T18:51:51.226Z,8.75
2018-09-04T18:54:20.523Z,9.28
2018-09-04T18:56:48.948Z,8.60
2018-09-04T18:59:17.519Z,8.53
2018-09-04T19:01:46.244Z,8.68
2018-09-04T19:04:14.859Z,8.10
2018-09-04T19:06:43.329Z,7.53
2018-09-04T19:09:11.718Z,9.03
2018-09-04T19:11:40.209Z,8.05
2018-09-04T19:14:08.810Z,9.05
2018-09-04T19:16:37.334Z,8.40
2018-09-04T19:19:06.926Z,8.40
2018-09-04T19:21:35.399Z,8.90
2018-09-04T19:24:04.021Z,8.10
2018-09-04T19:26:32.630Z,9.55
2018-09-04T19:29:01.625Z,7.75
2018-09-04T19:31:30.849Z,7.95
2018-09-04T19:33:59.553Z,7.83
2018-09-04T19:36:28.374Z,8.63
2018-09-04T19:38:56.916Z,8.30
2018-09-04T19:41:25.436Z,7.97
2018-09-04T19:43:53.900Z,12.90
2018-09-04T19:46:22.422Z,9.25
2018-09-04T19:48:50.903Z,9.55
2018-09-04T19:51:20.693Z,9.75
2018-09-04T19:53:49.382Z,7.83
2018-09-04T19:56:18.093Z,8.10
2018-09-04T19:58:46.645Z,6.67
2018-09-04T20:01:15.144Z,8.30
2018-09-04T20:03:43.618Z,7.05
2018-09-04T20:06:12.583Z,9.33
2018-09-04T20:08:41.091Z,6.67
2018-09-04T20:11:09.930Z,6.28
2018-09-04T20:13:38.328Z,6.17
2018-09-04T20:16:06.840Z,5.55
2018-09-04T20:18:35.412Z,5.85
2018-09-04T20:21:04.940Z,5.55
2018-09-04T20:23:33.422Z,5.62
2018-09-04T20:26:01.838Z,5.42
2018-09-04T20:28:30.513Z,5.70
2018-09-04T20:31:26.819Z,5.67
2018-09-04T20:33:55.545Z,6.12
2018-09-04T20:36:24.090Z,7.85
2018-09-04T20:38:52.552Z,5.10
2018-09-04T20:41:21.262Z,6.92
2018-09-04T20:43:49.883Z,5.10
2018-09-04T20:46:18.613Z,6.12
2018-09-04T20:48:47.046Z,7.75
2018-09-04T20:51:15.516Z,5.42
2018-09-04T20:53:44.147Z,6.65
2018-09-04T20:56:12.668Z,6.90
2018-09-04T20:58:52.362Z,7.97
2018-09-04T21:01:31.964Z,5.10
2018-09-04T21:04:11.829Z,5.78
2018-09-04T21:06:47.428Z,7.50
2018-09-04T21:09:25.989Z,7.25
2018-09-04T21:11:55.258Z,6.22
2018-09-04T21:14:23.864Z,5.08
2018-09-04T21:16:53.145Z,5.42
2018-09-04T21:19:21.622Z,6.00
2018-09-04T21:21:50.221Z,5.20
2018-09-04T21:24:18.620Z,5.53
2018-09-04T21:26:47.659Z,5.97
2018-09-04T21:29:16.069Z,6.53
2018-09-04T21:31:45.049Z,6.05
2018-09-04T21:34:14.273Z,5.00
2018-09-04T21:36:43.362Z,4.97
2018-09-04T21:39:12.103Z,5.58
2018-09-04T21:41:40.611Z,5.05
2018-09-04T21:44:09.024Z,8.25
2018-09-04T21:46:37.581Z,4.17
2018-09-04T21:49:06.069Z,4.60
2018-09-04T21:51:34.752Z,4.55
2018-09-04T21:54:03.360Z,5.28
2018-09-04T21:56:31.736Z,4.37
2018-09-04T21:59:00.858Z,4.70
2018-09-04T22:01:29.250Z,5.87
2018-09-04T22:03:57.624Z,5.35
2018-09-04T22:06:26.036Z,5.15
2018-09-04T22:08:54.545Z,4.90
2018-09-04T22:11:23.108Z,5.55
2018-09-04T22:13:51.486Z,4.87
2018-09-04T22:16:20.648Z,5.80
2018-09-04T22:18:49.184Z,5.83
2018-09-04T22:21:17.872Z,4.97
2018-09-04T22:23:46.349Z,5.60
2018-09-04T22:26:14.739Z,4.42
2018-09-04T22:28:43.280Z,6.17
2018-09-04T22:31:11.698Z,5.72
2018-09-04T22:33:44.551Z,4.58
2018-09-04T22:36:13.814Z,4.42
2018-09-04T22:38:42.229Z,4.53
2018-09-04T22:41:10.752Z,5.50
2018-09-04T22:43:39.453Z,5.42
2018-09-04T22:46:08.208Z,5.45
2018-09-04T22:48:37.541Z,5.50
2018-09-04T22:51:11.825Z,4.50
2018-09-04T22:53:40.585Z,4.80
2018-09-04T22:56:09.704Z,4.85
2018-09-04T22:58:38.406Z,5.28
2018-09-04T23:01:07.076Z,5.72
2018-09-04T23:03:35.560Z,4.97
2018-09-04T23:06:03.968Z,5.50
2018-09-04T23:08:32.365Z,4.80
2018-09-04T23:11:00.732Z,4.80
2018-09-04T23:13:29.516Z,4.70
2018-09-04T23:15:57.980Z,5.15
2018-09-04T23:18:26.701Z,5.12
2018-09-04T23:20:55.073Z,5.00
2018-09-04T23:23:23.492Z,4.15
2018-09-04T23:25:52.611Z,5.75
2018-09-04T23:28:21.084Z,6.15
2018-09-04T23:30:49.478Z,6.22
2018-09-04T23:33:18.808Z,5.37
2018-09-04T23:35:47.260Z,5.25
2018-09-04T23:38:15.675Z,4.30
2018-09-04T23:40:44.763Z,5.78
2018-09-04T23:43:13.212Z,5.20
2018-09-04T23:45:41.709Z,5.15
2018-09-04T23:48:10.151Z,6.55
2018-09-04T23:50:38.652Z,4.47
2018-09-04T23:53:07.181Z,5.22
2018-09-04T23:55:35.837Z,5.08
2018-09-04T23:58:04.212Z,5.12
